Time;durP1;ratioP1;P1;durP2;ratioP2;P2;SDS_P1;SDS_P2;PMS_P1;PMS_P2;Temp;Humidity;BMP_temperature;BMP_pressure;BME280_temperature;BME280_humidity;BME280_pressure;Samples;Min_cycle;Max_cycle;Signal;HPM_P1;HPM_P2
2022/11/27 00:01:37;;;;;;;5.78;4.32;;;11.30;99.90;;;;;;5114488;28;20015;-47
2022/11/27 00:04:04;;;;;;;4.63;3.65;;;11.40;99.90;;;;;;5114437;28;20020;-47
2022/11/27 00:06:31;;;;;;;6.60;4.05;;;12.60;99.90;;;;;;5114403;28;20369;-47
2022/11/27 00:08:58;;;;;;;4.80;3.75;;;13.90;99.90;;;;;;5113857;28;20072;-48
2022/11/27 00:11:26;;;;;;;4.70;3.65;;;14.10;99.60;;;;;;5114292;28;20028;-47
2022/11/27 00:13:52;;;;;;;4.88;4.05;;;13.70;99.70;;;;;;5114250;28;20499;-47
2022/11/27 00:16:19;;;;;;;4.10;3.67;;;13.20;99.90;;;;;;5114181;28;20035;-47
2022/11/27 00:18:45;;;;;;;6.25;4.40;;;12.70;99.90;;;;;;5112304;28;20362;-47
2022/11/27 00:21:23;;;;;;;5.63;3.97;;;12.30;99.90;;;;;;5114515;27;20080;-48
2022/11/27 00:23:50;;;;;;;5.43;3.85;;;11.90;99.90;;;;;;5113995;28;20476;-47
2022/11/27 00:26:16;;;;;;;5.38;4.07;;;11.60;99.90;;;;;;5113996;28;20080;-50
2022/11/27 00:28:42;;;;;;;6.30;4.00;;;11.40;99.90;;;;;;5113558;28;20028;-47
2022/11/27 00:31:13;;;;;;;4.90;4.10;;;11.20;99.90;;;;;;5114172;28;20027;-47
2022/11/27 00:33:39;;;;;;;5.10;3.78;;;11.20;99.90;;;;;;5114060;28;20480;-47
2022/11/27 00:36:06;;;;;;;5.75;4.03;;;12.40;99.90;;;;;;5112728;28;20106;-47
2022/11/27 00:38:33;;;;;;;4.93;3.92;;;13.80;99.90;;;;;;5113164;28;20028;-47
2022/11/27 00:41:14;;;;;;;4.88;3.90;;;14.10;99.50;;;;;;5113563;28;20032;-47
2022/11/27 00:43:40;;;;;;;4.75;3.80;;;13.80;99.50;;;;;;5113791;28;20023;-45
2022/11/27 00:46:05;;;;;;;5.30;3.75;;;13.20;99.90;;;;;;5113633;27;20556;-47
2022/11/27 00:48:31;;;;;;;3.95;3.55;;;12.70;99.90;;;;;;5113101;28;20051;-48
2022/11/27 00:51:10;;;;;;;4.40;3.38;;;12.30;99.90;;;;;;5113118;28;20028;-45
2022/11/27 00:53:36;;;;;;;4.63;3.70;;;11.90;99.90;;;;;;5113539;28;20050;-47
2022/11/27 00:56:02;;;;;;;3.83;3.42;;;11.60;99.90;;;;;;5113589;28;20485;-47
2022/11/27 00:58:29;;;;;;;4.93;3.80;;;11.40;99.90;;;;;;5112936;28;20388;-47
2022/11/27 01:01:06;;;;;;;5.43;4.00;;;11.20;99.90;;;;;;5113305;28;20024;-46
2022/11/27 01:03:33;;;;;;;5.65;3.90;;;11.10;99.90;;;;;;5113310;28;20028;-47
2022/11/27 01:06:04;;;;;;;4.63;3.72;;;12.30;99.90;;;;;;5113070;28;20077;-47
2022/11/27 01:08:30;;;;;;;4.60;3.60;;;13.80;99.90;;;;;;5112721;28;20076;-50
2022/11/27 01:10:57;;;;;;;4.40;3.28;;;14.20;99.20;;;;;;5113210;28;20031;-48
2022/11/27 01:13:24;;;;;;;5.05;3.50;;;13.90;99.00;;;;;;5113103;28;20051;-47
2022/11/27 01:16:07;;;;;;;4.93;3.30;;;13.40;99.50;;;;;;5113099;28;20384;-47
2022/11/27 01:18:34;;;;;;;4.85;4.03;;;12.70;99.90;;;;;;5112512;28;20553;-47
2022/11/27 01:21:00;;;;;;;6.32;3.65;;;12.30;99.90;;;;;;5112893;28;20023;-47
2022/11/27 01:23:27;;;;;;;4.22;3.28;;;11.90;99.90;;;;;;5112938;28;20370;-50
2022/11/27 01:25:52;;;;;;;4.70;3.65;;;11.60;99.90;;;;;;5112828;28;20038;-48
2022/11/27 01:28:19;;;;;;;4.32;3.40;;;11.40;99.90;;;;;;5112343;28;20027;-47
2022/11/27 01:30:45;;;;;;;5.78;3.92;;;11.20;99.90;;;;;;5112613;28;20028;-47
2022/11/27 01:33:11;;;;;;;4.00;3.38;;;11.00;99.90;;;;;;5112749;28;20056;-49
2022/11/27 01:35:36;;;;;;;4.20;3.10;;;11.00;99.90;;;;;;5111816;28;20023;-47
2022/11/27 01:38:02;;;;;;;4.70;3.50;;;10.80;99.90;;;;;;5112217;28;20039;-50
2022/11/27 01:40:28;;;;;;;3.97;3.30;;;11.70;99.90;;;;;;5112516;28;20042;-45
2022/11/27 01:42:53;;;;;;;3.65;2.90;;;13.40;99.90;;;;;;5112404;28;20437;-48
2022/11/27 01:45:20;;;;;;;5.03;2.97;;;14.40;99.30;;;;;;5112487;28;20037;-49
2022/11/27 01:47:54;;;;;;;4.13;3.10;;;14.30;98.60;;;;;;5112557;28;20047;-46
2022/11/27 01:50:28;;;;;;;3.75;3.17;;;13.70;99.00;;;;;;5112334;28;20063;-47
2022/11/27 01:53:01;;;;;;;4.95;3.38;;;13.10;99.70;;;;;;5112409;28;20060;-49
2022/11/27 01:55:39;;;;;;;3.45;2.90;;;12.60;99.90;;;;;;5112224;28;20488;-46
2022/11/27 01:58:29;;;;;;;4.05;3.30;;;12.10;99.90;;;;;;5111786;28;20080;-45
2022/11/27 02:00:55;;;;;;;4.43;3.17;;;11.70;99.90;;;;;;5112261;28;20031;-47
2022/11/27 02:03:21;;;;;;;4.75;3.47;;;11.50;99.90;;;;;;5111422;27;20109;-47
2022/11/27 02:05:47;;;;;;;4.45;3.00;;;11.30;99.90;;;;;;5111846;28;20022;-47
2022/11/27 02:08:15;;;;;;;3.83;3.20;;;11.10;99.90;;;;;;5111799;28;20024;-47
2022/11/27 02:11:22;;;;;;;4.78;3.25;;;11.00;99.90;;;;;;5112052;28;20461;-48
2022/11/27 02:14:09;;;;;;;3.85;2.72;;;10.90;99.90;;;;;;5091335;28;20031;-48
2022/11/27 02:16:54;;;;;;;4.25;2.88;;;12.40;99.90;;;;;;5112157;28;20035;-48
2022/11/27 02:20:14;;;;;;;3.58;2.80;;;14.00;99.90;;;;;;5111539;28;20031;-45
2022/11/27 02:23:08;;;;;;;3.47;2.67;;;14.30;98.40;;;;;;5081185;28;20458;-47
2022/11/27 02:25:49;;;;;;;3.75;2.83;;;13.70;98.80;;;;;;5111840;28;20035;-47
2022/11/27 02:28:14;;;;;;;4.28;2.88;;;13.00;99.60;;;;;;5111307;28;20548;-47
2022/11/27 02:30:45;;;;;;;3.22;2.60;;;12.60;99.90;;;;;;5111741;28;20038;-47
2022/11/27 02:33:14;;;;;;;4.05;2.78;;;12.10;99.90;;;;;;5111948;28;20027;-45
2022/11/27 02:35:55;;;;;;;4.35;2.70;;;11.70;99.90;;;;;;5110638;28;20019;-47
2022/11/27 02:38:46;;;;;;;3.42;2.50;;;11.50;99.90;;;;;;5111161;28;20477;-45
2022/11/27 02:41:18;;;;;;;3.60;3.03;;;11.20;99.90;;;;;;5106562;28;20069;-47
2022/11/27 02:43:52;;;;;;;3.55;2.95;;;11.10;99.90;;;;;;5111663;28;20047;-49
2022/11/27 02:46:19;;;;;;;3.20;2.60;;;10.90;99.90;;;;;;5111617;28;20394;-47
2022/11/27 02:48:49;;;;;;;3.25;2.65;;;10.80;99.90;;;;;;5111093;28;20476;-46
2022/11/27 02:51:18;;;;;;;3.53;2.90;;;10.70;99.90;;;;;;5111528;28;20027;-47
2022/11/27 02:53:55;;;;;;;4.00;2.90;;;10.60;99.90;;;;;;5111587;28;20077;-47
2022/11/27 02:56:25;;;;;;;3.35;2.50;;;10.60;99.90;;;;;;5111501;28;20050;-47
2022/11/27 02:58:53;;;;;;;3.58;2.80;;;10.50;99.90;;;;;;5110809;28;20473;-47
2022/11/27 03:01:22;;;;;;;3.85;3.05;;;10.50;99.90;;;;;;5111364;28;20392;-47
2022/11/27 03:03:52;;;;;;;4.18;3.00;;;10.60;99.90;;;;;;5111218;28;20427;-47
2022/11/27 03:06:26;;;;;;;3.75;2.80;;;11.90;99.90;;;;;;5111308;28;20027;-46
2022/11/27 03:08:53;;;;;;;3.00;2.17;;;13.80;99.90;;;;;;5110891;28;20031;-49
2022/11/27 03:11:18;;;;;;;3.05;2.33;;;14.70;98.20;;;;;;5111261;28;20019;-47
2022/11/27 03:13:49;;;;;;;3.72;2.50;;;14.50;97.70;;;;;;5113144;28;20435;-47
2022/11/27 03:16:21;;;;;;;2.45;2.17;;;13.90;98.10;;;;;;5115333;28;20024;-45
2022/11/27 03:19:10;;;;;;;3.28;2.42;;;13.30;98.90;;;;;;5114890;27;20020;-45
2022/11/27 03:21:39;;;;;;;3.05;2.42;;;12.70;99.70;;;;;;5115078;28;20468;-47
2022/11/27 03:24:07;;;;;;;2.75;2.35;;;12.20;99.90;;;;;;5115308;28;20056;-47
2022/11/27 03:26:32;;;;;;;3.45;2.60;;;11.80;99.90;;;;;;5115099;28;20103;-47
2022/11/27 03:29:00;;;;;;;3.38;2.55;;;11.40;99.90;;;;;;5114635;28;20108;-47
2022/11/27 03:31:27;;;;;;;3.40;2.80;;;11.20;99.90;;;;;;5115390;28;20024;-47
2022/11/27 03:33:53;;;;;;;2.88;2.22;;;11.30;99.90;;;;;;5115240;28;20055;-47
2022/11/27 03:36:20;;;;;;;3.10;2.58;;;12.50;99.90;;;;;;5115027;28;20069;-47
2022/11/27 03:38:48;;;;;;;3.30;2.40;;;13.80;99.40;;;;;;5114459;28;20385;-47
2022/11/27 03:41:23;;;;;;;3.63;2.42;;;14.00;98.30;;;;;;5114791;28;20094;-47
2022/11/27 03:44:18;;;;;;;2.92;2.10;;;13.60;98.40;;;;;;5114928;28;20063;-48
2022/11/27 03:47:08;;;;;;;2.70;2.17;;;13.10;99.10;;;;;;5114854;28;20080;-49
2022/11/27 03:50:01;;;;;;;2.70;2.20;;;12.40;99.90;;;;;;5114189;28;20418;-47
2022/11/27 03:52:44;;;;;;;3.13;2.60;;;11.90;99.90;;;;;;5115010;27;20066;-47
2022/11/27 03:55:41;;;;;;;3.08;2.17;;;11.60;99.90;;;;;;5114775;27;20374;-46
2022/11/27 03:58:07;;;;;;;2.30;2.00;;;11.30;99.90;;;;;;5099428;28;20063;-47
2022/11/27 04:00:37;;;;;;;3.55;2.53;;;11.10;99.90;;;;;;5114549;28;20059;-45
2022/11/27 04:03:04;;;;;;;3.08;2.40;;;11.00;99.90;;;;;;5114672;28;20016;-47
2022/11/27 04:05:30;;;;;;;3.78;2.28;;;11.80;99.90;;;;;;5114444;28;20499;-47
2022/11/27 04:07:55;;;;;;;2.92;2.20;;;13.50;99.90;;;;;;5114093;28;20106;-47
2022/11/27 04:10:21;;;;;;;2.92;2.08;;;14.30;98.20;;;;;;5114065;28;20015;-49
2022/11/27 04:12:46;;;;;;;2.58;2.08;;;14.10;97.60;;;;;;5114378;28;20373;-47
2022/11/27 04:15:13;;;;;;;4.32;2.33;;;13.50;98.10;;;;;;5114219;28;20031;-47
2022/11/27 04:17:39;;;;;;;3.03;2.38;;;13.00;98.90;;;;;;5114191;27;20031;-47
2022/11/27 04:20:05;;;;;;;2.95;2.20;;;12.50;99.50;;;;;;5113820;28;20061;-47
2022/11/27 04:22:31;;;;;;;2.78;2.28;;;11.90;99.90;;;;;;5114087;28;20072;-47
2022/11/27 04:24:56;;;;;;;2.88;2.00;;;11.60;99.90;;;;;;5113150;28;20019;-47
2022/11/27 04:27:22;;;;;;;2.47;1.90;;;11.30;99.90;;;;;;5112613;28;20473;-47
2022/11/27 04:29:48;;;;;;;3.88;2.85;;;11.10;99.90;;;;;;5113545;28;20430;-48
2022/11/27 04:32:13;;;;;;;2.90;2.10;;;10.90;99.90;;;;;;5113932;28;20110;-47
2022/11/27 04:34:39;;;;;;;3.05;2.08;;;11.30;99.90;;;;;;5112962;28;20024;-47
2022/11/27 04:37:04;;;;;;;2.97;2.20;;;12.70;99.90;;;;;;5113897;28;20107;-47
2022/11/27 04:39:30;;;;;;;2.80;2.25;;;14.00;98.60;;;;;;5113154;28;20484;-49
2022/11/27 04:41:56;;;;;;;2.30;2.03;;;14.20;97.60;;;;;;5113822;28;20076;-47
2022/11/27 04:44:21;;;;;;;3.38;2.33;;;13.70;97.80;;;;;;5113710;28;20444;-47
2022/11/27 04:46:48;;;;;;;2.05;1.80;;;13.20;98.40;;;;;;5113643;28;20055;-47
2022/11/27 04:49:14;;;;;;;3.33;2.45;;;12.70;99.10;;;;;;5112973;27;20019;-47
2022/11/27 04:51:39;;;;;;;2.92;2.35;;;12.10;99.80;;;;;;5113923;28;20057;-47
2022/11/27 04:54:05;;;;;;;3.30;2.58;;;11.70;99.90;;;;;;5113545;28;20020;-47
2022/11/27 04:56:31;;;;;;;2.95;2.20;;;11.40;99.90;;;;;;5113417;28;20019;-48
2022/11/27 04:58:57;;;;;;;2.72;2.20;;;11.20;99.90;;;;;;5112957;28;20385;-47
2022/11/27 05:01:23;;;;;;;3.25;2.40;;;11.00;99.90;;;;;;5113233;28;20031;-47
2022/11/27 05:03:49;;;;;;;3.17;2.42;;;11.00;99.90;;;;;;5113338;28;20028;-49
2022/11/27 05:06:14;;;;;;;2.97;2.40;;;12.10;99.90;;;;;;5113292;28;20084;-47
2022/11/27 05:08:40;;;;;;;2.97;2.30;;;13.80;99.10;;;;;;5112800;28;20030;-47
2022/11/27 05:11:11;;;;;;;2.35;1.90;;;14.30;97.40;;;;;;5113434;28;20027;-47
2022/11/27 05:13:37;;;;;;;3.53;2.03;;;14.00;97.20;;;;;;5113345;28;20515;-45
2022/11/27 05:16:04;;;;;;;3.00;2.10;;;13.40;97.80;;;;;;5113025;28;20035;-47
2022/11/27 05:18:30;;;;;;;2.85;2.08;;;12.80;98.60;;;;;;5112475;28;20023;-47
2022/11/27 05:21:04;;;;;;;3.08;1.92;;;12.30;99.30;;;;;;5112985;28;20122;-50
2022/11/27 05:23:30;;;;;;;3.00;1.90;;;11.80;99.90;;;;;;5111731;28;20028;-47
2022/11/27 05:25:56;;;;;;;2.70;1.98;;;11.50;99.90;;;;;;5112934;28;20253;-51
2022/11/27 05:28:22;;;;;;;3.65;2.28;;;11.20;99.90;;;;;;5112344;28;20061;-47
2022/11/27 05:30:48;;;;;;;2.75;2.00;;;10.90;99.90;;;;;;5112671;28;20043;-46
2022/11/27 05:33:15;;;;;;;2.10;1.88;;;10.80;99.90;;;;;;5112833;28;20031;-47
2022/11/27 05:35:41;;;;;;;2.72;1.98;;;11.70;99.90;;;;;;5111654;28;20034;-47
2022/11/27 05:38:07;;;;;;;2.40;2.03;;;13.40;99.50;;;;;;5112181;28;20031;-47
2022/11/27 05:40:34;;;;;;;2.00;1.70;;;14.60;97.10;;;;;;5112527;28;20507;-47
2022/11/27 05:42:59;;;;;;;2.25;1.80;;;14.50;96.40;;;;;;5112445;28;20028;-47
2022/11/27 05:45:25;;;;;;;2.33;2.10;;;14.00;96.70;;;;;;5112401;28;20023;-49
2022/11/27 05:47:50;;;;;;;2.20;1.85;;;13.30;97.50;;;;;;5112260;28;20024;-47
2022/11/27 05:50:16;;;;;;;2.13;1.63;;;12.70;98.40;;;;;;5112225;28;20042;-47
2022/11/27 05:52:42;;;;;;;2.90;1.80;;;12.10;99.10;;;;;;5112392;27;20051;-47
2022/11/27 05:55:08;;;;;;;2.88;1.88;;;11.70;99.80;;;;;;5112267;28;20123;-48
2022/11/27 05:57:33;;;;;;;2.65;2.05;;;11.40;99.90;;;;;;5112524;28;20090;-48
2022/11/27 05:59:59;;;;;;;2.85;1.67;;;11.10;99.90;;;;;;5111831;28;20476;-46
2022/11/27 06:02:25;;;;;;;2.45;1.90;;;10.90;99.90;;;;;;5112176;28;20652;-47
2022/11/27 06:04:51;;;;;;;2.03;1.75;;;11.30;99.90;;;;;;5112212;28;20043;-45
2022/11/27 06:07:17;;;;;;;1.83;1.60;;;12.70;99.90;;;;;;5111960;28;20019;-48
2022/11/27 06:09:42;;;;;;;3.65;2.30;;;14.10;97.70;;;;;;5111641;28;20039;-47
2022/11/27 06:12:08;;;;;;;2.25;1.45;;;14.20;96.50;;;;;;5111938;28;20019;-47
2022/11/27 06:14:34;;;;;;;2.22;1.60;;;13.70;96.90;;;;;;5111925;28;20453;-49
2022/11/27 06:17:01;;;;;;;2.53;1.70;;;13.10;97.50;;;;;;5111955;28;20015;-45
2022/11/27 06:19:27;;;;;;;2.38;1.63;;;12.50;98.30;;;;;;5111476;28;20038;-48
2022/11/27 06:21:53;;;;;;;2.05;1.50;;;12.10;99.00;;;;;;5111887;28;20031;-48
2022/11/27 06:24:19;;;;;;;4.88;1.80;;;11.70;99.70;;;;;;5111969;28;20020;-47
2022/11/27 06:26:45;;;;;;;2.45;1.77;;;11.30;99.90;;;;;;5111675;28;20465;-47
2022/11/27 06:29:11;;;;;;;2.15;1.70;;;11.00;99.90;;;;;;5111280;28;20054;-46
2022/11/27 06:31:37;;;;;;;3.20;1.70;;;10.80;99.90;;;;;;5111887;28;20024;-48
2022/11/27 06:34:03;;;;;;;2.20;1.60;;;10.90;99.90;;;;;;5111727;28;20031;-46
2022/11/27 06:36:32;;;;;;;2.63;1.60;;;12.20;99.90;;;;;;5111641;28;20089;-49
2022/11/27 06:38:58;;;;;;;1.95;1.50;;;13.70;98.10;;;;;;5110912;28;20049;-48
2022/11/27 06:41:25;;;;;;;3.00;1.63;;;14.10;96.70;;;;;;5111495;28;20679;-50
2022/11/27 06:43:52;;;;;;;2.22;1.77;;;13.70;96.70;;;;;;5111827;28;20444;-47
2022/11/27 06:46:20;;;;;;;1.85;1.60;;;13.10;97.30;;;;;;5111461;28;20035;-47
2022/11/27 06:48:48;;;;;;;3.03;1.60;;;12.60;98.00;;;;;;5110920;28;20024;-49
2022/11/27 06:51:20;;;;;;;3.10;1.77;;;12.00;98.70;;;;;;5111939;28;20317;-47
2022/11/27 06:53:46;;;;;;;2.20;2.00;;;11.60;99.50;;;;;;5111434;28;20026;-50
2022/11/27 06:56:15;;;;;;;2.70;1.70;;;11.20;99.90;;;;;;5111651;28;20027;-47
2022/11/27 06:58:41;;;;;;;1.83;1.60;;;11.00;99.90;;;;;;5110995;28;20464;-47
2022/11/27 07:01:09;;;;;;;2.05;1.52;;;10.80;99.90;;;;;;5111488;28;20461;-47
2022/11/27 07:03:35;;;;;;;1.90;1.50;;;10.60;99.90;;;;;;5111420;28;20023;-47
2022/11/27 07:06:03;;;;;;;1.67;1.55;;;10.50;99.90;;;;;;5111305;28;20020;-47
2022/11/27 07:08:29;;;;;;;2.05;1.70;;;10.40;99.90;;;;;;5110770;28;20016;-47
2022/11/27 07:11:01;;;;;;;2.33;1.75;;;10.30;99.90;;;;;;5111637;28;20065;-49
2022/11/27 07:13:28;;;;;;;2.78;1.58;;;10.20;99.90;;;;;;5111607;28;20047;-46
2022/11/27 07:15:53;;;;;;;2.00;1.60;;;10.20;99.90;;;;;;5111223;28;20384;-47
2022/11/27 07:18:19;;;;;;;2.83;1.73;;;10.10;99.90;;;;;;5110791;28;20102;-47
2022/11/27 07:20:50;;;;;;;2.17;1.45;;;10.10;99.90;;;;;;5111125;28;20027;-49
2022/11/27 07:23:16;;;;;;;1.85;1.52;;;10.10;99.90;;;;;;5111265;28;20464;-47
2022/11/27 07:25:42;;;;;;;2.58;1.75;;;10.10;99.90;;;;;;5111221;28;20073;-47
2022/11/27 07:28:07;;;;;;;2.90;2.08;;;10.00;99.90;;;;;;5110659;28;20028;-46
2022/11/27 07:30:33;;;;;;;2.83;1.85;;;10.00;99.90;;;;;;5111226;28;20477;-49
2022/11/27 07:32:58;;;;;;;3.20;1.95;;;10.00;99.90;;;;;;5111140;28;20077;-47
2022/11/27 07:35:24;;;;;;;2.05;1.75;;;10.00;99.90;;;;;;5110948;28;20519;-45
2022/11/27 07:37:50;;;;;;;2.70;2.10;;;9.90;99.90;;;;;;5110826;28;20019;-47
2022/11/27 07:40:19;;;;;;;2.65;1.92;;;9.90;99.90;;;;;;5110761;28;20529;-46
2022/11/27 07:42:45;;;;;;;2.65;1.67;;;9.90;99.90;;;;;;5110982;28;20019;-46
2022/11/27 07:45:11;;;;;;;4.18;2.03;;;9.90;99.90;;;;;;5111017;28;20039;-47
2022/11/27 07:47:36;;;;;;;2.08;1.85;;;9.90;99.90;;;;;;5110791;28;20020;-47
2022/11/27 07:50:02;;;;;;;2.70;1.65;;;9.90;99.90;;;;;;5110397;28;20028;-48
2022/11/27 07:52:28;;;;;;;2.85;2.10;;;9.90;99.90;;;;;;5111041;28;20400;-47
2022/11/27 07:54:54;;;;;;;4.25;2.38;;;9.90;99.90;;;;;;5110941;28;20031;-47
2022/11/27 07:57:20;;;;;;;3.17;1.85;;;10.00;99.90;;;;;;5110761;28;20024;-44
2022/11/27 07:59:45;;;;;;;2.97;2.25;;;10.00;99.90;;;;;;5110552;28;20042;-47
2022/11/27 08:02:12;;;;;;;3.35;2.05;;;10.00;99.90;;;;;;5114524;28;20023;-47
2022/11/27 08:04:38;;;;;;;3.90;2.20;;;10.00;99.90;;;;;;5114398;28;20157;-47
2022/11/27 08:07:03;;;;;;;2.58;1.77;;;10.00;99.90;;;;;;5114743;28;20106;-47
2022/11/27 08:09:29;;;;;;;2.90;2.05;;;10.00;99.90;;;;;;5113926;28;20457;-47
2022/11/27 08:11:55;;;;;;;2.30;1.88;;;10.00;99.90;;;;;;5114500;28;20042;-48
2022/11/27 08:14:20;;;;;;;2.33;1.63;;;10.00;99.90;;;;;;5114768;27;20380;-47
2022/11/27 08:16:46;;;;;;;3.75;2.15;;;10.00;99.90;;;;;;5114277;28;20043;-47
2022/11/27 08:19:12;;;;;;;2.63;2.10;;;10.00;99.90;;;;;;5113646;28;20016;-47
2022/11/27 08:21:38;;;;;;;3.28;1.90;;;10.00;99.90;;;;;;5113925;28;20526;-47
2022/11/27 08:24:04;;;;;;;3.63;1.88;;;10.10;99.90;;;;;;5114195;28;20042;-47
2022/11/27 08:26:30;;;;;;;2.65;1.80;;;10.00;99.90;;;;;;5114015;28;20102;-47
2022/11/27 08:28:56;;;;;;;3.42;2.00;;;10.00;99.90;;;;;;5113659;28;20040;-47
2022/11/27 08:31:23;;;;;;;2.95;2.10;;;10.00;99.90;;;;;;5114142;28;20024;-47
2022/11/27 08:33:48;;;;;;;2.75;1.95;;;10.00;99.90;;;;;;5113929;28;20028;-47
2022/11/27 08:36:15;;;;;;;2.55;1.85;;;10.00;99.90;;;;;;5113104;28;20068;-47
2022/11/27 08:38:40;;;;;;;3.13;2.08;;;10.10;99.90;;;;;;5113280;28;20046;-48
2022/11/27 08:41:07;;;;;;;2.72;1.98;;;10.10;99.90;;;;;;5113676;28;20028;-47
2022/11/27 08:43:33;;;;;;;3.42;2.13;;;10.10;99.90;;;;;;5113863;28;20407;-47
2022/11/27 08:46:02;;;;;;;3.38;2.00;;;10.10;99.90;;;;;;5112431;28;20024;-46
2022/11/27 08:48:27;;;;;;;2.83;2.00;;;10.20;99.90;;;;;;5113355;28;20257;-47
2022/11/27 08:50:53;;;;;;;2.58;1.83;;;10.10;99.90;;;;;;5114226;28;20058;-47
2022/11/27 08:53:19;;;;;;;2.50;2.00;;;10.10;99.90;;;;;;5113570;28;20381;-47
2022/11/27 08:55:44;;;;;;;2.38;1.90;;;10.10;99.90;;;;;;5113532;28;20027;-49
2022/11/27 08:58:10;;;;;;;2.40;2.00;;;10.20;99.90;;;;;;5113401;28;20514;-47
2022/11/27 09:00:37;;;;;;;2.28;1.73;;;10.20;99.90;;;;;;5113509;28;20030;-47
2022/11/27 09:03:03;;;;;;;3.15;2.10;;;10.20;99.90;;;;;;5113452;28;20049;-47
2022/11/27 09:05:30;;;;;;;2.85;2.05;;;10.20;99.90;;;;;;5113277;28;20484;-47
2022/11/27 09:07:56;;;;;;;2.65;1.85;;;10.20;99.90;;;;;;5112874;28;20020;-47
2022/11/27 09:10:22;;;;;;;2.40;2.00;;;10.20;99.90;;;;;;5113254;28;20495;-47
2022/11/27 09:12:48;;;;;;;2.65;1.90;;;10.20;99.90;;;;;;5112934;28;20020;-50
2022/11/27 09:15:14;;;;;;;3.13;2.10;;;10.20;99.90;;;;;;5113155;28;20106;-47
2022/11/27 09:17:40;;;;;;;2.78;2.10;;;10.20;99.90;;;;;;5113042;28;20122;-47
2022/11/27 09:20:06;;;;;;;4.63;1.85;;;10.20;99.90;;;;;;5112722;28;20117;-50
2022/11/27 09:22:33;;;;;;;3.63;2.20;;;10.20;99.90;;;;;;5112876;28;20027;-47
2022/11/27 09:24:59;;;;;;;2.92;2.33;;;10.20;99.90;;;;;;5112956;28;20024;-45
2022/11/27 09:27:24;;;;;;;3.63;2.70;;;10.20;99.90;;;;;;5113031;28;20027;-47
2022/11/27 09:29:50;;;;;;;3.10;2.33;;;10.20;99.90;;;;;;5112569;27;20027;-50
2022/11/27 09:32:16;;;;;;;4.78;2.40;;;10.20;99.90;;;;;;5112928;28;20027;-47
2022/11/27 09:34:41;;;;;;;3.38;1.92;;;10.20;99.90;;;;;;5111838;28;20472;-47
2022/11/27 09:37:08;;;;;;;2.63;2.00;;;10.20;99.90;;;;;;5112851;28;20031;-47
2022/11/27 09:39:34;;;;;;;3.45;2.53;;;10.20;99.90;;;;;;5112014;28;20027;-47
2022/11/27 09:42:03;;;;;;;3.40;2.47;;;10.20;99.90;;;;;;5112514;28;20495;-47
2022/11/27 09:44:28;;;;;;;3.92;2.55;;;10.20;99.90;;;;;;5112634;28;20077;-51
2022/11/27 09:46:56;;;;;;;3.17;2.13;;;10.20;99.90;;;;;;5112461;28;20402;-47
2022/11/27 09:49:40;;;;;;;3.53;2.50;;;10.30;99.90;;;;;;5112007;28;20389;-47
2022/11/27 09:52:13;;;;;;;3.50;2.42;;;10.30;99.90;;;;;;5112588;28;20057;-47
2022/11/27 09:54:56;;;;;;;2.67;2.20;;;10.30;99.90;;;;;;5112452;27;20030;-49
2022/11/27 09:57:27;;;;;;;2.58;2.20;;;10.20;99.90;;;;;;5112134;28;20107;-47
2022/11/27 09:59:54;;;;;;;3.03;2.30;;;10.30;99.90;;;;;;5111962;28;20019;-46
2022/11/27 10:02:41;;;;;;;4.05;2.45;;;10.30;99.90;;;;;;5112367;28;20031;-45
2022/11/27 10:05:17;;;;;;;4.72;2.58;;;10.20;99.90;;;;;;5112270;28;20554;-47
2022/11/27 10:08:12;;;;;;;3.03;2.30;;;10.30;99.90;;;;;;5112092;28;20016;-47
2022/11/27 10:10:52;;;;;;;3.28;2.25;;;10.20;99.90;;;;;;5112214;28;20023;-47
2022/11/27 10:13:46;;;;;;;2.92;2.45;;;10.30;99.90;;;;;;5112146;28;20042;-47
2022/11/27 10:16:20;;;;;;;2.90;2.00;;;10.30;99.90;;;;;;5111866;28;20016;-47
2022/11/27 10:18:58;;;;;;;3.30;2.35;;;10.30;99.90;;;;;;5111481;28;20030;-49
2022/11/27 10:21:43;;;;;;;3.50;2.40;;;10.30;99.90;;;;;;5111895;28;20126;-46
2022/11/27 10:24:40;;;;;;;3.20;2.40;;;10.30;99.90;;;;;;5111217;28;20049;-46
2022/11/27 10:27:45;;;;;;;3.00;2.00;;;10.30;99.90;;;;;;5111782;28;20039;-49
2022/11/27 10:30:19;;;;;;;2.38;2.08;;;10.30;99.90;;;;;;5109173;28;20535;-48
2022/11/27 10:32:47;;;;;;;2.97;2.17;;;10.40;99.90;;;;;;5111713;28;20500;-47
2022/11/27 10:35:17;;;;;;;3.85;2.45;;;10.40;99.90;;;;;;5111633;28;20020;-48
2022/11/27 10:37:51;;;;;;;3.40;2.63;;;10.40;99.90;;;;;;5111619;28;20529;-47
2022/11/27 10:40:22;;;;;;;3.22;2.75;;;10.40;99.90;;;;;;5111361;28;20027;-47
2022/11/27 10:42:59;;;;;;;3.38;2.35;;;10.40;99.90;;;;;;5111659;28;20472;-47
2022/11/27 10:45:43;;;;;;;4.30;2.50;;;10.40;99.90;;;;;;5110166;28;20092;-47
2022/11/27 10:48:10;;;;;;;3.40;2.55;;;10.50;99.90;;;;;;5111251;28;20027;-49
2022/11/27 10:50:36;;;;;;;3.90;2.53;;;10.50;99.90;;;;;;5111552;28;20099;-48
2022/11/27 10:53:05;;;;;;;3.03;2.47;;;10.50;99.90;;;;;;5111459;28;20488;-47
2022/11/27 10:55:59;;;;;;;3.75;2.70;;;10.50;99.90;;;;;;5111474;28;20030;-47
2022/11/27 10:58:36;;;;;;;3.10;2.55;;;10.50;99.90;;;;;;5111013;28;20027;-47
2022/11/27 11:01:11;;;;;;;2.88;2.42;;;10.50;99.90;;;;;;5110286;28;20119;-47
2022/11/27 11:03:37;;;;;;;2.92;2.15;;;10.50;99.90;;;;;;5111472;28;20076;-45
2022/11/27 11:06:13;;;;;;;3.75;2.60;;;10.50;99.90;;;;;;5111414;28;20107;-47
2022/11/27 11:08:39;;;;;;;3.97;2.50;;;10.50;99.90;;;;;;5110968;28;20020;-47
2022/11/27 11:11:07;;;;;;;3.05;2.38;;;10.50;99.90;;;;;;5111640;28;20034;-47
2022/11/27 11:13:44;;;;;;;3.05;2.30;;;10.60;99.90;;;;;;5111483;28;20103;-47
2022/11/27 11:16:10;;;;;;;3.50;2.60;;;10.60;99.90;;;;;;5111371;28;20553;-47
2022/11/27 11:18:49;;;;;;;3.70;2.60;;;10.60;99.90;;;;;;5110641;28;20089;-47
2022/11/27 11:21:16;;;;;;;3.47;2.38;;;10.60;99.90;;;;;;5109988;28;20020;-47
2022/11/27 11:23:45;;;;;;;3.67;2.63;;;10.60;99.90;;;;;;5111211;28;20066;-47
2022/11/27 11:26:34;;;;;;;3.00;2.50;;;10.60;99.90;;;;;;5111144;28;20016;-47
2022/11/27 11:29:03;;;;;;;3.05;2.28;;;10.60;99.90;;;;;;5110658;28;20030;-47
2022/11/27 11:31:39;;;;;;;4.68;2.72;;;10.60;99.90;;;;;;5111522;28;20031;-51
2022/11/27 11:34:19;;;;;;;4.10;2.47;;;10.60;99.90;;;;;;5111752;28;20024;-47
2022/11/27 11:37:06;;;;;;;3.60;2.40;;;10.60;99.90;;;;;;5114314;28;20039;-47
2022/11/27 11:39:38;;;;;;;3.78;2.42;;;10.60;99.90;;;;;;5114680;28;20034;-45
2022/11/27 11:42:19;;;;;;;3.50;2.35;;;10.60;99.90;;;;;;5115261;28;20027;-47
2022/11/27 11:44:53;;;;;;;3.15;2.28;;;10.60;99.90;;;;;;5115011;28;20051;-47
2022/11/27 11:47:25;;;;;;;3.15;2.35;;;10.60;99.90;;;;;;5114649;28;20562;-47
2022/11/27 11:49:52;;;;;;;2.70;2.40;;;10.60;99.90;;;;;;5114492;28;20019;-47
2022/11/27 11:52:45;;;;;;;2.80;2.30;;;10.60;99.90;;;;;;5114719;28;20108;-50
2022/11/27 11:55:25;;;;;;;4.30;2.58;;;10.60;99.90;;;;;;5115256;28;20046;-48
2022/11/27 11:58:32;;;;;;;3.45;2.50;;;10.60;99.90;;;;;;5114522;28;20032;-46
2022/11/27 12:01:32;;;;;;;3.20;2.35;;;10.60;99.90;;;;;;5114605;28;20016;-47
2022/11/27 12:04:40;;;;;;;3.70;2.22;;;10.60;99.90;;;;;;5114821;28;20073;-47
2022/11/27 12:07:33;;;;;;;2.95;2.00;;;10.60;99.90;;;;;;5105078;28;20376;-46
2022/11/27 12:10:22;;;;;;;4.38;2.53;;;10.60;99.90;;;;;;5113958;28;20114;-47
2022/11/27 12:13:02;;;;;;;3.45;2.13;;;10.60;99.90;;;;;;5114504;28;20500;-45
2022/11/27 12:15:42;;;;;;;3.90;2.30;;;10.60;99.90;;;;;;5114379;28;20062;-47
2022/11/27 12:18:40;;;;;;;2.30;1.92;;;10.70;99.90;;;;;;5113815;28;20077;-48
2022/11/27 12:21:45;;;;;;;2.85;2.22;;;10.70;99.90;;;;;;5075903;28;20037;-47
2022/11/27 12:24:48;;;;;;;3.20;2.17;;;10.60;99.90;;;;;;5114206;28;20015;-48
2022/11/27 12:27:42;;;;;;;3.08;2.05;;;10.70;99.90;;;;;;5114261;28;20046;-49
2022/11/27 12:30:14;;;;;;;3.27;2.33;;;10.70;99.90;;;;;;5113703;28;20031;-49
2022/11/27 12:33:09;;;;;;;2.75;1.85;;;10.70;99.90;;;;;;5114070;28;20023;-47
2022/11/27 12:35:43;;;;;;;2.70;2.20;;;10.70;99.90;;;;;;5093887;28;20051;-47
2022/11/27 12:38:22;;;;;;;2.80;2.10;;;10.60;99.90;;;;;;5113454;28;20515;-47
2022/11/27 12:40:59;;;;;;;3.03;2.03;;;10.70;99.90;;;;;;5113781;28;20035;-46
2022/11/27 12:43:27;;;;;;;5.82;2.15;;;10.70;99.90;;;;;;5113790;28;20102;-45
2022/11/27 12:45:55;;;;;;;3.42;2.05;;;10.60;99.90;;;;;;5113019;27;20030;-45
2022/11/27 12:48:34;;;;;;;3.03;2.00;;;10.60;99.90;;;;;;5113189;28;20020;-47
2022/11/27 12:51:10;;;;;;;3.17;2.15;;;10.70;99.90;;;;;;5113676;28;20392;-47
2022/11/27 12:53:45;;;;;;;2.60;1.83;;;10.70;99.90;;;;;;5113664;28;20099;-48
2022/11/27 12:56:23;;;;;;;2.70;2.10;;;10.60;99.90;;;;;;5113497;28;20026;-50
2022/11/27 12:59:00;;;;;;;3.13;2.08;;;10.60;99.90;;;;;;5113138;28;20507;-47
2022/11/27 13:01:45;;;;;;;3.03;2.08;;;10.60;99.90;;;;;;5113494;28;20038;-47
2022/11/27 13:04:34;;;;;;;2.15;1.70;;;10.70;99.90;;;;;;5112102;28;20020;-47
2022/11/27 13:07:07;;;;;;;2.75;2.20;;;10.70;99.90;;;;;;5113330;28;20027;-47
2022/11/27 13:09:57;;;;;;;2.30;1.73;;;10.70;99.90;;;;;;5112916;28;20024;-45